Time;durP1;ratioP1;P1;durP2;ratioP2;P2;SDS_P1;SDS_P2;PMS_P1;PMS_P2;Temp;Humidity;BMP_temperature;BMP_pressure;BME280_temperature;BME280_humidity;BME280_pressure;Samples;Min_cycle;Max_cycle;Signal;HPM_P1;HPM_P2
2022/11/23 00:02:26;;;;;;;;;;;;;;;2.96;100.00;99020.59;5591166;31;34236;-75
2022/11/23 00:05:33;;;;;;;;;;;;;;;2.97;100.00;99017.81;5578138;31;34940;-76
2022/11/23 00:08:41;;;;;;;;;;;;;;;2.93;100.00;99015.66;5591601;31;34890;-75
2022/11/23 00:11:50;;;;;;;;;;;;;;;3.00;100.00;99007.03;5591521;31;34349;-75
2022/11/23 00:14:57;;;;;;;;;;;;;;;3.06;100.00;99008.22;5591687;31;34441;-74
2022/11/23 00:18:05;;;;;;;;;;;;;;;3.03;100.00;99005.91;5591455;31;34845;-75
2022/11/23 00:21:14;;;;;;;;;;;;;;;3.05;100.00;99012.63;5591396;31;34766;-76
2022/11/23 00:24:21;;;;;;;;;;;;;;;3.13;100.00;99014.50;5564786;31;35014;-75
2022/11/23 00:27:28;;;;;;;;;;;;;;;3.17;100.00;99004.53;5591326;31;34243;-77
2022/11/23 00:30:38;;;;;;;;;;;;;;;3.18;100.00;99003.56;5577181;31;34742;-75
2022/11/23 00:33:54;;;;;;;;;;;;;;;3.26;100.00;99009.66;5591312;31;34927;-74
2022/11/23 00:37:01;;;;;;;;;;;;;;;3.37;100.00;98998.09;5591343;31;34852;-73
2022/11/23 00:40:10;;;;;;;;;;;;;;;3.35;100.00;98997.41;5577959;31;34274;-74
2022/11/23 00:43:17;;;;;;;;;;;;;;;3.31;100.00;98996.09;5591079;31;34526;-73
2022/11/23 00:46:25;;;;;;;;;;;;;;;3.34;100.00;99006.28;5576845;31;35041;-72
2022/11/23 00:49:34;;;;;;;;;;;;;;;3.40;100.00;99008.25;5591506;31;34188;-73
2022/11/23 00:52:42;;;;;;;;;;;;;;;3.37;100.00;99006.78;5577978;31;34805;-72
2022/11/23 00:55:54;;;;;;;;;;;;;;;3.39;100.00;99009.22;5577746;31;34914;-72
2022/11/23 00:59:06;;;;;;;;;;;;;;;3.42;100.00;98993.22;5591124;31;34381;-72
2022/11/23 01:02:14;;;;;;;;;;;;;;;3.36;100.00;98994.66;5590951;31;34982;-73
2022/11/23 01:05:21;;;;;;;;;;;;;;;3.25;100.00;98991.47;5591344;31;34822;-72
2022/11/23 01:08:28;;;;;;;;;;;;;;;3.25;100.00;98994.91;5577796;31;34290;-73
2022/11/23 01:11:34;;;;;;;;;;;;;;;3.26;100.00;98990.50;5590770;31;33840;-72
2022/11/23 01:14:41;;;;;;;;;;;;;;;3.30;100.00;98994.44;5590678;31;34693;-72
2022/11/23 01:17:49;;;;;;;;;;;;;;;3.21;100.00;98990.13;5590917;31;34718;-73
2022/11/23 01:21:00;;;;;;;;;;;;;;;3.24;100.00;98982.81;5590845;31;34925;-72
2022/11/23 01:24:11;;;;;;;;;;;;;;;3.21;100.00;98988.34;5590878;31;34656;-72
2022/11/23 01:27:19;;;;;;;;;;;;;;;3.21;100.00;98982.28;5577104;31;33683;-72
2022/11/23 01:30:29;;;;;;;;;;;;;;;3.19;100.00;98979.00;5577815;31;34933;-72
2022/11/23 01:33:35;;;;;;;;;;;;;;;3.28;100.00;98976.28;5590779;31;34283;-72
2022/11/23 01:36:42;;;;;;;;;;;;;;;3.24;100.00;98974.94;5590703;31;34993;-72
2022/11/23 01:39:48;;;;;;;;;;;;;;;3.21;100.00;98971.78;5590701;31;34683;-72
2022/11/23 01:42:59;;;;;;;;;;;;;;;3.17;100.00;98984.38;5590637;31;34641;-72
2022/11/23 01:46:08;;;;;;;;;;;;;;;3.16;100.00;98974.88;5577341;31;35154;-72
2022/11/23 01:49:20;;;;;;;;;;;;;;;3.21;100.00;98969.16;5590641;31;34822;-73
2022/11/23 01:52:26;;;;;;;;;;;;;;;3.25;100.00;98957.41;5576562;31;33426;-72
2022/11/23 01:55:35;;;;;;;;;;;;;;;3.19;100.00;98961.50;5590638;31;34373;-72
2022/11/23 01:58:48;;;;;;;;;;;;;;;3.18;100.00;98959.00;5590511;31;34357;-72
2022/11/23 02:01:57;;;;;;;;;;;;;;;3.22;100.00;98961.16;5590461;31;34917;-72
2022/11/23 02:05:04;;;;;;;;;;;;;;;3.19;100.00;98971.16;5576136;31;33173;-72
2022/11/23 02:08:12;;;;;;;;;;;;;;;3.15;100.00;98961.94;5590454;31;34982;-72
2022/11/23 02:11:20;;;;;;;;;;;;;;;3.22;100.00;98949.84;5590522;31;34316;-71
2022/11/23 02:14:28;;;;;;;;;;;;;;;3.16;100.00;98959.16;5576903;31;34226;-72
2022/11/23 02:17:34;;;;;;;;;;;;;;;3.12;100.00;98960.44;5590353;31;34606;-71
2022/11/23 02:20:44;;;;;;;;;;;;;;;3.20;100.00;98964.91;5590448;31;34189;-72
2022/11/23 02:23:50;;;;;;;;;;;;;;;3.17;100.00;98959.97;5589410;31;34353;-71
2022/11/23 02:27:02;;;;;;;;;;;;;;;3.15;100.00;98948.84;5590328;31;34239;-72
2022/11/23 02:30:10;;;;;;;;;;;;;;;3.18;100.00;98953.78;5577021;31;34871;-71
2022/11/23 02:33:20;;;;;;;;;;;;;;;3.09;100.00;98954.72;5590247;31;34216;-71
2022/11/23 02:36:29;;;;;;;;;;;;;;;3.08;100.00;98958.28;5590269;31;34912;-71
2022/11/23 02:39:43;;;;;;;;;;;;;;;3.05;100.00;98967.28;5590158;31;34714;-71
2022/11/23 02:42:49;;;;;;;;;;;;;;;3.05;100.00;98948.94;5576719;31;34208;-71
2022/11/23 02:46:14;;;;;;;;;;;;;;;3.06;100.00;98947.97;5578641;31;34202;-71
2022/11/23 02:49:20;;;;;;;;;;;;;;;3.05;100.00;98943.69;5590338;31;35119;-71
2022/11/23 02:52:28;;;;;;;;;;;;;;;3.07;100.00;98954.84;5590075;31;34366;-71
2022/11/23 02:55:36;;;;;;;;;;;;;;;3.04;100.00;98968.28;5590101;31;34336;-72
2022/11/23 02:58:45;;;;;;;;;;;;;;;3.06;100.00;98969.75;5590061;31;34967;-72
2022/11/23 03:01:55;;;;;;;;;;;;;;;3.10;100.00;98946.66;5590049;31;34695;-71
2022/11/23 03:05:05;;;;;;;;;;;;;;;3.08;100.00;98961.75;5590188;31;34351;-71
2022/11/23 03:08:10;;;;;;;;;;;;;;;3.03;100.00;98950.91;5576464;31;34282;-70
2022/11/23 03:11:18;;;;;;;;;;;;;;;2.98;100.00;98954.00;5576862;31;34251;-71
2022/11/23 03:14:28;;;;;;;;;;;;;;;3.00;100.00;98959.09;5576121;31;34222;-71
2022/11/23 03:17:36;;;;;;;;;;;;;;;2.99;100.00;98954.81;5589920;31;34713;-71
2022/11/23 03:20:45;;;;;;;;;;;;;;;3.05;100.00;98947.13;5589696;31;35056;-71
2022/11/23 03:23:55;;;;;;;;;;;;;;;3.08;100.00;98953.88;5589712;31;34310;-71
2022/11/23 03:27:05;;;;;;;;;;;;;;;3.03;100.00;98972.69;5589961;31;34702;-71
2022/11/23 03:30:11;;;;;;;;;;;;;;;3.05;100.00;98951.56;5589613;31;34612;-71
2022/11/23 03:33:20;;;;;;;;;;;;;;;3.09;100.00;98949.47;5589667;31;34401;-71
2022/11/23 03:36:27;;;;;;;;;;;;;;;3.08;100.00;98939.94;5589641;31;34360;-71
2022/11/23 03:39:35;;;;;;;;;;;;;;;3.02;100.00;98951.88;5589602;31;34325;-70
2022/11/23 03:42:55;;;;;;;;;;;;;;;2.99;100.00;98950.41;5589563;31;34316;-71
2022/11/23 03:46:03;;;;;;;;;;;;;;;3.02;100.00;98947.47;5589563;31;34621;-71
2022/11/23 03:49:09;;;;;;;;;;;;;;;3.00;100.00;98952.00;5589418;31;34343;-70
2022/11/23 03:52:15;;;;;;;;;;;;;;;3.08;100.00;98948.63;5589537;31;34602;-71
2022/11/23 03:55:23;;;;;;;;;;;;;;;3.09;100.00;98955.53;5575465;31;35144;-71
2022/11/23 03:58:29;;;;;;;;;;;;;;;3.10;100.00;98957.16;5589400;31;34685;-71
2022/11/23 04:01:37;;;;;;;;;;;;;;;3.07;100.00;98960.09;5589245;31;34303;-71
2022/11/23 04:04:45;;;;;;;;;;;;;;;3.11;100.00;98948.31;5589199;31;34869;-71
2022/11/23 04:07:59;;;;;;;;;;;;;;;3.15;100.00;98948.84;5589111;31;34332;-70
2022/11/23 04:11:08;;;;;;;;;;;;;;;3.09;100.00;98949.47;5575815;31;34356;-71
2022/11/23 04:14:13;;;;;;;;;;;;;;;3.06;100.00;98948.78;5574792;31;34910;-71
2022/11/23 04:17:21;;;;;;;;;;;;;;;3.07;100.00;98957.47;5588842;31;34940;-71
2022/11/23 04:20:28;;;;;;;;;;;;;;;3.08;100.00;98959.13;5574781;31;32784;-72
2022/11/23 04:23:35;;;;;;;;;;;;;;;3.05;100.00;98954.16;5575271;31;34342;-71
2022/11/23 04:26:42;;;;;;;;;;;;;;;3.09;100.00;98946.84;5588734;31;34222;-71
2022/11/23 04:29:50;;;;;;;;;;;;;;;3.03;100.00;98938.62;5588661;31;34935;-72
2022/11/23 04:32:57;;;;;;;;;;;;;;;3.03;100.00;98954.34;5588723;31;34293;-72
2022/11/23 04:36:05;;;;;;;;;;;;;;;3.04;100.00;98961.25;5588868;31;34849;-71
2022/11/23 04:39:12;;;;;;;;;;;;;;;3.08;100.00;98972.22;5575218;31;34894;-71
2022/11/23 04:42:21;;;;;;;;;;;;;;;3.08;100.00;98964.37;5588803;31;34905;-71
2022/11/23 04:45:28;;;;;;;;;;;;;;;3.13;100.00;98953.41;5588291;31;34885;-71
2022/11/23 04:48:38;;;;;;;;;;;;;;;3.08;100.00;98953.88;5591013;31;34339;-70
2022/11/23 04:51:45;;;;;;;;;;;;;;;3.04;100.00;98948.13;5577111;31;34403;-70
2022/11/23 04:54:51;;;;;;;;;;;;;;;3.03;100.00;98964.81;5591112;31;34767;-68
2022/11/23 04:58:01;;;;;;;;;;;;;;;3.02;100.00;98972.81;5591027;31;34881;-68
2022/11/23 05:01:11;;;;;;;;;;;;;;;3.03;100.00;98972.69;5591061;31;34647;-68
2022/11/23 05:04:18;;;;;;;;;;;;;;;3.03;100.00;98970.06;5590995;31;34240;-68
2022/11/23 05:07:26;;;;;;;;;;;;;;;3.05;100.00;98959.41;5591217;31;34247;-69
2022/11/23 05:10:32;;;;;;;;;;;;;;;3.07;100.00;98962.72;5590952;31;34617;-68
2022/11/23 05:13:38;;;;;;;;;;;;;;;3.08;100.00;98960.91;5577485;31;34971;-69
2022/11/23 05:16:47;;;;;;;;;;;;;;;3.02;100.00;98963.19;5590759;31;34314;-68
2022/11/23 05:19:58;;;;;;;;;;;;;;;3.03;100.00;98970.06;5576670;31;34830;-70
2022/11/23 05:23:05;;;;;;;;;;;;;;;3.05;100.00;98968.09;5564641;31;34931;-69
2022/11/23 05:26:10;;;;;;;;;;;;;;;3.02;100.00;98971.03;5590608;31;34498;-68
2022/11/23 05:29:17;;;;;;;;;;;;;;;3.04;100.00;98957.78;5590744;31;34707;-69
2022/11/23 05:32:21;;;;;;;;;;;;;;;3.08;100.00;98953.88;5590715;31;35084;-69
2022/11/23 05:35:35;;;;;;;;;;;;;;;3.10;100.00;98938.81;5590757;31;34872;-68
2022/11/23 05:38:51;;;;;;;;;;;;;;;3.18;100.00;98938.03;5590719;31;34386;-68
2022/11/23 05:41:55;;;;;;;;;;;;;;;3.15;100.00;98928.69;5590356;31;34252;-69
2022/11/23 05:45:16;;;;;;;;;;;;;;;3.16;100.00;98935.56;5590677;31;34306;-69
2022/11/23 05:48:21;;;;;;;;;;;;;;;3.15;100.00;98938.38;5590900;31;34238;-70
2022/11/23 05:51:31;;;;;;;;;;;;;;;3.22;100.00;98939.38;5590509;31;34664;-70
2022/11/23 05:54:38;;;;;;;;;;;;;;;3.17;100.00;98937.22;5590351;31;34134;-69
2022/11/23 05:57:45;;;;;;;;;;;;;;;3.18;100.00;98933.63;5589287;31;35334;-69
2022/11/23 06:00:52;;;;;;;;;;;;;;;3.17;100.00;98931.16;5590269;31;34488;-67
2022/11/23 06:03:58;;;;;;;;;;;;;;;3.19;100.00;98940.53;5576974;31;34141;-69
2022/11/23 06:07:06;;;;;;;;;;;;;;;3.15;100.00;98933.91;5590279;31;34211;-68
2022/11/23 06:10:14;;;;;;;;;;;;;;;3.28;100.00;98939.59;5590223;31;34209;-68
2022/11/23 06:13:20;;;;;;;;;;;;;;;3.21;100.00;98937.72;5576935;31;34341;-68
2022/11/23 06:16:27;;;;;;;;;;;;;;;3.16;100.00;98960.94;5590598;31;34779;-68
2022/11/23 06:19:31;;;;;;;;;;;;;;;3.18;100.00;98956.37;5576615;31;34916;-69
2022/11/23 06:22:35;;;;;;;;;;;;;;;3.22;100.00;98958.53;5590376;31;34682;-69
2022/11/23 06:25:40;;;;;;;;;;;;;;;3.21;100.00;98959.50;5590132;31;34133;-69
2022/11/23 06:28:45;;;;;;;;;;;;;;;3.21;100.00;98959.50;5576434;31;34870;-68
2022/11/23 06:31:53;;;;;;;;;;;;;;;3.20;100.00;98949.19;5576165;31;34354;-68
2022/11/23 06:34:58;;;;;;;;;;;;;;;3.19;100.00;98958.03;5576284;31;34372;-69
2022/11/23 06:38:04;;;;;;;;;;;;;;;3.18;100.00;98965.06;5576821;31;34487;-68
2022/11/23 06:41:09;;;;;;;;;;;;;;;3.21;100.00;98975.25;5589934;31;34246;-69
2022/11/23 06:44:12;;;;;;;;;;;;;;;3.22;100.00;98976.88;5589815;31;34255;-70
2022/11/23 06:47:16;;;;;;;;;;;;;;;3.26;100.00;98974.78;5589844;31;34530;-68
2022/11/23 06:50:28;;;;;;;;;;;;;;;3.19;100.00;98976.38;5575550;31;34214;-69
2022/11/23 06:53:32;;;;;;;;;;;;;;;3.18;100.00;98969.50;5576036;31;34777;-69
2022/11/23 06:56:36;;;;;;;;;;;;;;;3.27;100.00;98965.94;5589740;31;34586;-69
2022/11/23 06:59:44;;;;;;;;;;;;;;;3.25;100.00;98963.47;5589685;31;34453;-68
2022/11/23 07:02:51;;;;;;;;;;;;;;;3.28;100.00;98952.69;5576136;31;34836;-68
2022/11/23 07:05:57;;;;;;;;;;;;;;;3.24;100.00;98967.09;5562671;31;33663;-67
2022/11/23 07:09:01;;;;;;;;;;;;;;;3.28;100.00;98964.97;5587797;31;34934;-68
2022/11/23 07:12:07;;;;;;;;;;;;;;;3.36;100.00;98975.47;5576445;31;34539;-68
2022/11/23 07:15:12;;;;;;;;;;;;;;;3.33;100.00;98987.13;5589328;31;34969;-69
2022/11/23 07:18:15;;;;;;;;;;;;;;;3.32;100.00;98989.88;5588961;31;34284;-69
2022/11/23 07:21:32;;;;;;;;;;;;;;;3.32;100.00;98984.63;5589536;31;34248;-69
2022/11/23 07:24:36;;;;;;;;;;;;;;;3.38;100.00;98986.66;5589523;31;34343;-68
2022/11/23 07:27:45;;;;;;;;;;;;;;;3.39;100.00;98993.50;5589251;31;34985;-69
2022/11/23 07:30:50;;;;;;;;;;;;;;;3.38;100.00;98989.25;5589107;31;34902;-68
2022/11/23 07:33:55;;;;;;;;;;;;;;;3.35;100.00;98990.38;5589589;31;34226;-69
2022/11/23 07:36:58;;;;;;;;;;;;;;;3.41;100.00;98981.06;5575662;31;34494;-68
2022/11/23 07:40:06;;;;;;;;;;;;;;;3.41;100.00;98989.78;5576409;31;34294;-69
2022/11/23 07:43:10;;;;;;;;;;;;;;;3.40;100.00;98989.91;5589180;31;34343;-68
2022/11/23 07:46:15;;;;;;;;;;;;;;;3.43;100.00;98977.34;5589059;31;34383;-69
2022/11/23 07:49:19;;;;;;;;;;;;;;;3.52;100.00;98982.59;5589352;31;34745;-69
2022/11/23 07:52:22;;;;;;;;;;;;;;;3.54;100.00;98988.50;5575391;31;33725;-70
2022/11/23 07:55:29;;;;;;;;;;;;;;;3.46;100.00;98986.69;5575528;31;33024;-69
2022/11/23 07:58:34;;;;;;;;;;;;;;;3.57;100.00;98993.44;5575470;31;34286;-70
2022/11/23 08:01:39;;;;;;;;;;;;;;;3.58;100.00;98993.31;5575256;31;32827;-70
2022/11/23 08:04:44;;;;;;;;;;;;;;;3.59;100.00;98994.91;5575579;31;34236;-70
2022/11/23 08:07:49;;;;;;;;;;;;;;;3.50;100.00;98993.25;5575133;31;33034;-70
2022/11/23 08:10:53;;;;;;;;;;;;;;;3.56;100.00;98995.25;5575435;31;34682;-70
2022/11/23 08:13:57;;;;;;;;;;;;;;;3.67;100.00;98994.97;5575310;31;34934;-70
2022/11/23 08:17:03;;;;;;;;;;;;;;;3.81;100.00;98996.19;5574820;31;34131;-69
2022/11/23 08:20:06;;;;;;;;;;;;;;;3.63;100.00;98996.25;5588778;31;34458;-70
2022/11/23 08:23:10;;;;;;;;;;;;;;;3.66;100.00;99000.38;5590917;31;34318;-70
2022/11/23 08:26:13;;;;;;;;;;;;;;;3.67;100.00;99005.47;5591260;31;34932;-70
2022/11/23 08:29:16;;;;;;;;;;;;;;;3.66;100.00;99003.00;5577210;31;33467;-70
2022/11/23 08:32:19;;;;;;;;;;;;;;;3.73;100.00;99010.06;5591209;31;34447;-70
2022/11/23 08:35:23;;;;;;;;;;;;;;;3.78;100.00;99012.22;5591631;31;34136;-70
2022/11/23 08:38:27;;;;;;;;;;;;;;;3.79;100.00;99006.00;5576945;31;35893;-71
2022/11/23 08:41:30;;;;;;;;;;;;;;;3.83;100.00;99007.31;5591156;31;35060;-70
2022/11/23 08:44:34;;;;;;;;;;;;;;;3.82;100.00;99009.13;5591205;31;34315;-70
2022/11/23 08:47:39;;;;;;;;;;;;;;;3.82;100.00;99005.69;5591108;31;34955;-71
2022/11/23 08:50:43;;;;;;;;;;;;;;;3.86;100.00;99012.25;5590837;31;34321;-70
2022/11/23 08:53:50;;;;;;;;;;;;;;;3.78;100.00;99004.34;5590981;31;34694;-70
2022/11/23 08:56:54;;;;;;;;;;;;;;;3.83;100.00;99005.50;5591332;31;34644;-70
2022/11/23 09:00:00;;;;;;;;;;;;;;;3.79;100.00;99017.31;5577539;31;34277;-71
2022/11/23 09:03:05;;;;;;;;;;;;;;;3.81;100.00;99015.38;5590816;31;34570;-71
2022/11/23 09:06:09;;;;;;;;;;;;;;;3.79;100.00;99019.94;5590806;31;34373;-70
2022/11/23 09:09:13;;;;;;;;;;;;;;;3.74;100.00;99019.56;5577403;31;34359;-70
2022/11/23 09:12:17;;;;;;;;;;;;;;;3.74;100.00;99021.38;5577309;31;32644;-70
2022/11/23 09:15:20;;;;;;;;;;;;;;;3.80;100.00;99026.81;5590638;31;34946;-70
2022/11/23 09:18:29;;;;;;;;;;;;;;;3.78;100.00;99025.31;5576812;31;34312;-71
2022/11/23 09:21:34;;;;;;;;;;;;;;;3.92;100.00;99022.91;5564197;31;33042;-71
2022/11/23 09:24:38;;;;;;;;;;;;;;;3.85;100.00;99021.09;5564074;31;35191;-70
2022/11/23 09:27:41;;;;;;;;;;;;;;;3.87;100.00;99017.31;5590721;31;34924;-71
2022/11/23 09:30:46;;;;;;;;;;;;;;;3.86;100.00;99014.88;5590599;31;34948;-70
2022/11/23 09:33:51;;;;;;;;;;;;;;;3.86;100.00;99015.72;5590613;31;35097;-71
2022/11/23 09:36:55;;;;;;;;;;;;;;;3.84;100.00;99009.78;5576890;31;34587;-70
2022/11/23 09:40:00;;;;;;;;;;;;;;;3.83;100.00;99012.56;5576641;31;34303;-71
2022/11/23 09:43:22;;;;;;;;;;;;;;;3.88;100.00;99013.72;5590689;31;34885;-72
2022/11/23 09:46:36;;;;;;;;;;;;;;;3.82;100.00;99018.81;5590875;31;34942;-70
2022/11/23 09:49:40;;;;;;;;;;;;;;;4.01;100.00;99012.47;5590541;31;34865;-71
2022/11/23 09:52:47;;;;;;;;;;;;;;;3.89;100.00;99011.94;5576694;31;34440;-72
2022/11/23 09:55:53;;;;;;;;;;;;;;;3.82;100.00;99010.94;5590419;31;34705;-72
2022/11/23 09:58:59;;;;;;;;;;;;;;;3.84;100.00;99008.97;5576680;31;35477;-72
2022/11/23 10:02:02;;;;;;;;;;;;;;;3.82;100.00;99010.94;5590356;31;34639;-70
2022/11/23 10:05:13;;;;;;;;;;;;;;;3.80;100.00;99003.22;5576836;31;35163;-73
2022/11/23 10:08:26;;;;;;;;;;;;;;;3.84;100.00;99011.59;5590732;31;34377;-71
2022/11/23 10:11:39;;;;;;;;;;;;;;;3.93;100.00;99018.50;5590362;31;34379;-71
2022/11/23 10:15:00;;;;;;;;;;;;;;;3.99;100.00;99009.19;5590062;31;34885;-72
2022/11/23 10:18:14;;;;;;;;;;;;;;;3.99;100.00;99019.66;5590183;31;34279;-72
2022/11/23 10:21:29;;;;;;;;;;;;;;;3.96;100.00;99014.75;5576457;31;33116;-71
2022/11/23 10:24:41;;;;;;;;;;;;;;;4.06;100.00;99010.19;5576919;31;35040;-71
2022/11/23 10:27:48;;;;;;;;;;;;;;;4.11;100.00;99007.91;5576159;31;34040;-70
2022/11/23 10:30:55;;;;;;;;;;;;;;;4.09;100.00;99002.00;5590428;31;34695;-71
2022/11/23 10:33:59;;;;;;;;;;;;;;;3.99;100.00;99001.31;5576254;31;33025;-71
2022/11/23 10:37:07;;;;;;;;;;;;;;;4.01;100.00;99005.44;5590048;31;34524;-72
2022/11/23 10:40:17;;;;;;;;;;;;;;;4.03;100.00;98997.38;5590175;31;34379;-72
2022/11/23 10:43:24;;;;;;;;;;;;;;;4.01;100.00;99005.44;5589921;31;34924;-72
2022/11/23 10:46:31;;;;;;;;;;;;;;;4.07;100.00;99007.38;5590047;31;34046;-74
2022/11/23 10:49:37;;;;;;;;;;;;;;;4.03;100.00;99008.69;5591462;31;34597;-74
2022/11/23 10:52:51;;;;;;;;;;;;;;;4.06;100.00;99011.03;5589875;31;34909;-73
2022/11/23 10:56:00;;;;;;;;;;;;;;;4.13;100.00;99011.19;5590175;31;34293;-72
2022/11/23 10:59:03;;;;;;;;;;;;;;;4.24;100.00;99010.87;5576163;31;34262;-74
2022/11/23 11:02:18;;;;;;;;;;;;;;;4.31;100.00;99011.88;5576311;31;34223;-73
2022/11/23 11:05:25;;;;;;;;;;;;;;;4.23;100.00;99009.25;5590039;31;33856;-72
2022/11/23 11:08:52;;;;;;;;;;;;;;;4.15;100.00;99006.59;5565396;31;34128;-72
2022/11/23 11:11:57;;;;;;;;;;;;;;;4.24;100.00;99005.63;5589633;31;34329;-73
2022/11/23 11:15:14;;;;;;;;;;;;;;;4.22;100.00;99008.41;5589228;31;34894;-73
2022/11/23 11:18:18;;;;;;;;;;;;;;;4.15;100.00;99001.34;5588286;31;34185;-73
2022/11/23 11:21:29;;;;;;;;;;;;;;;4.21;100.00;99004.16;5561654;31;34346;-73
2022/11/23 11:24:43;;;;;;;;;;;;;;;4.19;100.00;98995.63;5588233;31;34932;-73
2022/11/23 11:27:51;;;;;;;;;;;;;;;4.21;100.00;98998.88;5574551;31;34113;-74
2022/11/23 11:30:54;;;;;;;;;;;;;;;4.16;100.00;98995.97;5574646;31;34695;-73
2022/11/23 11:33:57;;;;;;;;;;;;;;;4.22;100.00;98999.72;5588431;31;35581;-74
2022/11/23 11:37:12;;;;;;;;;;;;;;;4.31;100.00;98996.94;5588315;31;34365;-75
2022/11/23 11:40:25;;;;;;;;;;;;;;;4.23;100.00;99002.19;5587951;31;35021;-75
2022/11/23 11:43:33;;;;;;;;;;;;;;;4.39;100.00;98996.16;5574093;31;34622;-74
2022/11/23 11:46:46;;;;;;;;;;;;;;;4.41;100.00;99001.22;5587880;31;34847;-74
2022/11/23 11:49:49;;;;;;;;;;;;;;;4.44;100.00;98998.28;5587907;31;34180;-75
2022/11/23 11:52:55;;;;;;;;;;;;;;;4.52;100.00;98993.88;5587860;31;34904;-76
2022/11/23 11:56:01;;;;;;;;;;;;;;;4.59;100.00;99002.75;5573244;31;34895;-75
2022/11/23 11:59:08;;;;;;;;;;;;;;;4.34;100.00;98996.66;5588475;31;34284;-76
2022/11/23 12:02:18;;;;;;;;;;;;;;;4.35;100.00;99002.72;5588069;31;34436;-76
2022/11/23 12:05:41;;;;;;;;;;;;;;;4.36;100.00;99001.72;5560717;31;33110;-76
2022/11/23 12:08:44;;;;;;;;;;;;;;;4.51;100.00;98994.03;5587536;31;34963;-76
2022/11/23 12:11:47;;;;;;;;;;;;;;;4.42;100.00;98998.44;5587258;31;34812;-76
2022/11/23 12:14:50;;;;;;;;;;;;;;;4.33;100.00;99008.13;5549278;31;782349;-77
2022/11/23 12:18:03;;;;;;;;;;;;;;;4.38;100.00;99002.37;5589121;31;34178;-78
2022/11/23 12:21:32;;;;;;;;;;;;;;;4.44;100.00;99008.78;5574994;31;34379;-75
2022/11/23 12:24:55;;;;;;;;;;;;;;;4.51;100.00;99005.34;5565065;31;34256;-75
2022/11/23 12:28:15;;;;;;;;;;;;;;;4.48;100.00;98992.56;5574507;31;34808;-75
2022/11/23 12:31:29;;;;;;;;;;;;;;;4.52;100.00;99004.38;5588578;31;34104;-76
2022/11/23 12:34:40;;;;;;;;;;;;;;;4.59;100.00;99005.38;5574986;31;34218;-77
2022/11/23 12:38:07;;;;;;;;;;;;;;;4.61;100.00;99002.56;5574654;31;35157;-74
2022/11/23 12:41:37;;;;;;;;;;;;;;;4.57;100.00;99006.50;5574703;31;34914;-75
2022/11/23 12:44:51;;;;;;;;;;;;;;;4.65;100.00;98996.81;5585730;31;34485;-76
2022/11/23 12:48:06;;;;;;;;;;;;;;;4.63;100.00;98992.72;5574564;31;34773;-76
2022/11/23 12:51:22;;;;;;;;;;;;;;;4.65;100.00;98994.19;5574294;31;33051;-75
2022/11/23 12:54:32;;;;;;;;;;;;;;;4.64;100.00;98989.94;5588175;31;34993;-75
2022/11/23 12:57:40;;;;;;;;;;;;;;;4.65;100.00;98996.81;5574355;31;35104;-76
2022/11/23 13:00:48;;;;;;;;;;;;;;;4.70;100.00;98989.28;5588125;31;34819;-75
2022/11/23 13:04:07;;;;;;;;;;;;;;;4.65;100.00;98996.81;5588366;31;34287;-76
2022/11/23 13:07:28;;;;;;;;;;;;;;;4.80;100.00;98994.34;5574484;31;36338;-76
2022/11/23 13:11:04;;;;;;;;;;;;;;;4.86;100.00;99000.75;5590915;31;34274;-76
2022/11/23 13:14:25;;;;;;;;;;;;;;;4.65;100.00;99004.69;5576801;31;33963;-76
2022/11/23 13:17:47;;;;;;;;;;;;;;;4.72;100.00;98994.37;5577305;31;35133;-75
2022/11/23 13:20:58;;;;;;;;;;;;;;;4.74;100.00;99008.97;5592529;31;34218;-77
2022/11/23 13:24:01;;;;;;;;;;;;;;;4.76;100.00;99014.88;5591113;31;34620;-76
2022/11/23 13:27:12;;;;;;;;;;;;;;;4.72;100.00;99012.75;5591140;31;34683;-74
2022/11/23 13:30:24;;;;;;;;;;;;;;;4.72;100.00;99020.63;5590847;31;34219;-76
2022/11/23 13:33:37;;;;;;;;;;;;;;;4.70;100.00;99018.16;5590735;31;34605;-75
2022/11/23 13:36:42;;;;;;;;;;;;;;;4.67;100.00;99022.94;5590745;31;34321;-75
2022/11/23 13:40:05;;;;;;;;;;;;;;;4.92;100.00;99021.97;5565892;31;33094;-77
2022/11/23 13:43:16;;;;;;;;;;;;;;;4.70;100.00;99018.16;5576333;31;33467;-74
2022/11/23 13:46:22;;;;;;;;;;;;;;;4.69;100.00;99015.72;5563756;31;34334;-76
2022/11/23 13:49:34;;;;;;;;;;;;;;;4.67;100.00;99015.88;5576804;31;34338;-75
2022/11/23 13:52:47;;;;;;;;;;;;;;;4.73;100.00;99022.28;5590620;31;34915;-76
2022/11/23 13:55:55;;;;;;;;;;;;;;;4.74;100.00;99029.97;5590462;31;34287;-75
2022/11/23 13:59:19;;;;;;;;;;;;;;;4.77;100.00;99026.22;5577007;31;34152;-75
2022/11/23 14:02:28;;;;;;;;;;;;;;;4.73;100.00;99022.28;5576809;31;34272;-75
2022/11/23 14:05:49;;;;;;;;;;;;;;;4.67;100.00;99021.12;5590528;31;34175;-75
2022/11/23 14:09:14;;;;;;;;;;;;;;;4.71;100.00;99021.62;5590161;31;34755;-75
2022/11/23 14:12:20;;;;;;;;;;;;;;;4.68;100.00;99028.03;5563371;31;34894;-75
2022/11/23 14:15:26;;;;;;;;;;;;;;;4.66;100.00;99024.72;5589944;31;34314;-76
2022/11/23 14:18:42;;;;;;;;;;;;;;;4.68;100.00;99022.78;5589622;31;34337;-75
2022/11/23 14:21:57;;;;;;;;;;;;;;;4.81;100.00;99032.78;5576477;31;34520;-76
2022/11/23 14:25:21;;;;;;;;;;;;;;;4.75;100.00;99026.37;5590189;31;35044;-75
2022/11/23 14:28:26;;;;;;;;;;;;;;;4.79;100.00;99026.88;5590050;31;34291;-75
2022/11/23 14:31:38;;;;;;;;;;;;;;;4.71;100.00;99025.06;5576299;31;32716;-76
2022/11/23 14:34:53;;;;;;;;;;;;;;;4.73;100.00;99030.16;5575927;31;34263;-76
2022/11/23 14:37:58;;;;;;;;;;;;;;;4.79;100.00;99032.94;5575988;31;34230;-75
2022/11/23 14:41:06;;;;;;;;;;;;;;;4.73;100.00;99035.41;5576163;31;35672;-75
2022/11/23 14:44:12;;;;;;;;;;;;;;;4.76;100.00;99035.09;5589690;31;34288;-74
2022/11/23 14:47:24;;;;;;;;;;;;;;;4.80;100.00;99031.97;5590027;31;34853;-74
2022/11/23 14:50:28;;;;;;;;;;;;;;;4.79;100.00;99040.03;5590080;31;34429;-75
2022/11/23 14:53:38;;;;;;;;;;;;;;;4.77;100.00;99041.97;5589796;31;34914;-76
2022/11/23 14:56:50;;;;;;;;;;;;;;;4.91;100.00;99041.34;5589742;31;34285;-74
2022/11/23 14:59:56;;;;;;;;;;;;;;;4.88;100.00;99043.47;5575682;31;34244;-74
2022/11/23 15:03:16;;;;;;;;;;;;;;;4.85;100.00;99044.59;5589663;31;34267;-75
2022/11/23 15:06:43;;;;;;;;;;;;;;;4.85;100.00;99049.03;5589693;31;34343;-74
2022/11/23 15:09:48;;;;;;;;;;;;;;;4.91;100.00;99051.84;5575851;31;34410;-77
2022/11/23 15:12:53;;;;;;;;;;;;;;;4.92;100.00;99055.28;5575888;31;34857;-75
2022/11/23 15:16:02;;;;;;;;;;;;;;;4.90;100.00;99055.44;5589416;31;34837;-75
2022/11/23 15:19:16;;;;;;;;;;;;;;;4.84;100.00;99063.19;5575287;31;35159;-74
2022/11/23 15:22:23;;;;;;;;;;;;;;;4.89;100.00;99063.53;5589163;31;33749;-75
2022/11/23 15:25:27;;;;;;;;;;;;;;;4.90;100.00;99062.50;5589335;31;34557;-74
2022/11/23 15:28:33;;;;;;;;;;;;;;;4.88;100.00;99072.38;5589094;31;34256;-75
2022/11/23 15:31:39;;;;;;;;;;;;;;;4.97;100.00;99066.13;5589241;31;34276;-76
2022/11/23 15:35:06;;;;;;;;;;;;;;;4.86;100.00;99064.66;5589287;31;34663;-76
2022/11/23 15:38:12;;;;;;;;;;;;;;;4.95;100.00;99066.28;5588679;31;34242;-76
2022/11/23 15:41:23;;;;;;;;;;;;;;;4.88;100.00;99075.84;5588731;31;34876;-76
2022/11/23 15:44:31;;;;;;;;;;;;;;;4.90;100.00;99073.84;5589137;31;34725;-75
2022/11/23 15:47:36;;;;;;;;;;;;;;;4.86;100.00;99075.16;5589092;31;34992;-75
2022/11/23 15:51:08;;;;;;;;;;;;;;;4.89;100.00;99071.41;5589198;31;34571;-74
2022/11/23 15:54:24;;;;;;;;;;;;;;;4.80;100.00;99066.13;5574328;31;34201;-74
2022/11/23 15:57:30;;;;;;;;;;;;;;;4.80;100.00;99057.41;5574929;31;35373;-75
2022/11/23 16:00:35;;;;;;;;;;;;;;;4.84;100.00;99071.87;5589061;31;34803;-75
2022/11/23 16:03:51;;;;;;;;;;;;;;;4.85;100.00;99067.44;5588957;31;34296;-75
2022/11/23 16:06:56;;;;;;;;;;;;;;;4.81;100.00;99069.56;5588819;31;34646;-75
2022/11/23 16:10:05;;;;;;;;;;;;;;;4.92;100.00;99084.19;5574784;31;35684;-76
2022/11/23 16:13:30;;;;;;;;;;;;;;;4.78;100.00;99078.63;5588813;31;34212;-77
2022/11/23 16:16:37;;;;;;;;;;;;;;;4.70;100.00;99078.59;5574889;31;33653;-75
2022/11/23 16:19:48;;;;;;;;;;;;;;;4.79;100.00;99074.97;5588828;31;34383;-76
2022/11/23 16:22:54;;;;;;;;;;;;;;;4.78;100.00;99077.78;5588922;31;34658;-75
2022/11/23 16:26:02;;;;;;;;;;;;;;;4.89;100.00;99090.59;5588682;31;34259;-76